Time;durP1;ratioP1;P1;durP2;ratioP2;P2;SDS_P1;SDS_P2;PMS_P1;PMS_P2;Temp;Humidity;BMP_temperature;BMP_pressure;BME280_temperature;BME280_humidity;BME280_pressure;Samples;Min_cycle;Max_cycle;Signal;HPM_P1;HPM_P2
2024/02/21 00:02:23;;;;;;;15.93;4.70;;;;;;;6.24;100.00;100314.94;5041754;28;20033;-76
2024/02/21 00:04:49;;;;;;;17.13;4.18;;;;;;;6.21;100.00;100296.56;5058336;28;20451;-76
2024/02/21 00:07:15;;;;;;;14.45;4.80;;;;;;;6.23;100.00;100294.59;5041550;28;20032;-76
2024/02/21 00:09:40;;;;;;;14.20;4.40;;;;;;;6.24;100.00;100286.41;5058318;28;20043;-76
2024/02/21 00:12:06;;;;;;;7.93;3.55;;;;;;;6.25;100.00;100292.59;5041619;28;20040;-76
2024/02/21 00:14:32;;;;;;;17.55;5.50;;;;;;;6.24;100.00;100278.41;5041560;28;20051;-75
2024/02/21 00:16:58;;;;;;;19.02;6.68;;;;;;;6.28;100.00;100277.09;5057986;28;20029;-75
2024/02/21 00:19:23;;;;;;;20.73;7.13;;;;;;;6.36;100.00;100265.63;5041512;28;20489;-76
2024/02/21 00:21:49;;;;;;;19.70;6.10;;;;;;;6.36;100.00;100246.91;5041466;28;20041;-76
2024/02/21 00:24:14;;;;;;;18.90;7.35;;;;;;;6.42;100.00;100254.28;5041398;28;20033;-75
2024/02/21 00:26:40;;;;;;;12.55;5.30;;;;;;;6.46;100.00;100241.47;5041519;28;20508;-75
2024/02/21 00:29:06;;;;;;;16.25;5.45;;;;;;;6.47;100.00;100227.94;5057509;28;20387;-75
2024/02/21 00:31:31;;;;;;;11.40;4.40;;;;;;;6.44;100.00;100220.25;5056952;28;20028;-75
2024/02/21 00:33:57;;;;;;;18.35;6.78;;;;;;;6.45;100.00;100215.72;5041059;28;20029;-75
2024/02/21 00:36:23;;;;;;;10.63;4.93;;;;;;;6.44;100.00;100212.22;5057652;28;20040;-75
2024/02/21 00:38:49;;;;;;;12.52;5.40;;;;;;;6.44;100.00;100200.72;5024689;28;20036;-77
2024/02/21 00:41:15;;;;;;;9.25;4.30;;;;;;;6.45;100.00;100186.34;5041867;28;20033;-75
2024/02/21 00:43:41;;;;;;;8.05;3.30;;;;;;;6.44;100.00;100172.16;5041567;28;20481;-75
2024/02/21 00:46:07;;;;;;;8.13;3.78;;;;;;;6.50;100.00;100171.50;5074120;28;20036;-76
2024/02/21 00:48:34;;;;;;;10.45;3.85;;;;;;;6.53;100.00;100147.13;5058252;28;20040;-76
2024/02/21 00:51:00;;;;;;;8.82;4.55;;;;;;;6.54;100.00;100140.00;5057594;28;20040;-76
2024/02/21 00:53:26;;;;;;;8.77;4.38;;;;;;;6.56;100.00;100113.91;5040683;28;20028;-76
2024/02/21 00:55:51;;;;;;;8.57;3.58;;;;;;;6.63;100.00;100108.75;5057671;28;20126;-75
2024/02/21 00:58:17;;;;;;;14.38;5.38;;;;;;;6.68;100.00;100090.41;5057448;28;20032;-76
2024/02/21 01:00:43;;;;;;;7.40;3.60;;;;;;;6.76;100.00;100091.22;5040762;28;20047;-75
2024/02/21 01:03:08;;;;;;;8.80;4.30;;;;;;;6.85;100.00;100069.84;5040356;28;20033;-76
2024/02/21 01:05:34;;;;;;;11.63;4.65;;;;;;;6.92;100.00;100069.00;5040680;28;20020;-76
2024/02/21 01:08:00;;;;;;;7.53;3.33;;;;;;;6.99;100.00;100056.66;5040882;28;20035;-76
2024/02/21 01:10:25;;;;;;;9.07;4.07;;;;;;;7.05;100.00;100052.44;5074834;28;20064;-76
2024/02/21 01:12:51;;;;;;;9.27;3.92;;;;;;;7.08;100.00;100038.75;5041248;28;20028;-76
2024/02/21 01:15:16;;;;;;;6.57;3.80;;;;;;;7.20;100.00;100015.16;5040205;28;20490;-76
2024/02/21 01:17:42;;;;;;;8.57;3.63;;;;;;;7.20;100.00;99980.41;5040407;28;20062;-75
2024/02/21 01:20:08;;;;;;;6.65;2.85;;;;;;;7.25;100.00;99981.56;5056500;28;20036;-76
2024/02/21 01:22:34;;;;;;;5.63;2.85;;;;;;;7.25;100.00;99975.34;5040081;28;20020;-76
2024/02/21 01:24:59;;;;;;;4.35;2.40;;;;;;;7.19;100.00;99962.69;5056860;28;20383;-75
2024/02/21 01:27:25;;;;;;;5.05;2.25;;;;;;;7.15;100.00;99953.34;5040174;28;20032;-76
2024/02/21 01:29:51;;;;;;;10.25;3.15;;;;;;;7.08;100.00;99941.69;5057087;28;20032;-76
2024/02/21 01:32:17;;;;;;;4.65;2.47;;;;;;;7.01;100.00;99941.53;5040171;28;20368;-76
2024/02/21 01:34:43;;;;;;;6.68;3.00;;;;;;;6.98;100.00;99918.66;5056796;28;20036;-76
2024/02/21 01:37:09;;;;;;;7.20;2.55;;;;;;;6.96;100.00;99912.66;5056192;28;20052;-77
2024/02/21 01:39:35;;;;;;;7.63;2.67;;;;;;;6.97;100.00;99908.97;5056570;28;20414;-76
2024/02/21 01:42:01;;;;;;;7.13;2.50;;;;;;;7.00;100.00;99903.28;5056061;28;20071;-77
2024/02/21 01:44:27;;;;;;;6.30;1.77;;;;;;;7.00;100.00;99875.72;5039579;28;20091;-76
2024/02/21 01:46:52;;;;;;;1.95;1.42;;;;;;;6.99;100.00;99853.50;5039881;28;20024;-76
2024/02/21 01:49:21;;;;;;;2.60;1.52;;;;;;;6.97;100.00;99846.66;5039848;28;20043;-76
2024/02/21 01:51:47;;;;;;;2.53;1.60;;;;;;;6.99;100.00;99837.47;5073037;28;20040;-76
2024/02/21 01:54:17;;;;;;;4.20;1.98;;;;;;;7.01;100.00;99831.94;5023581;28;20056;-76
2024/02/21 01:56:44;;;;;;;7.00;1.92;;;;;;;7.01;100.00;99816.75;5039776;28;20142;-76
2024/02/21 01:59:10;;;;;;;2.03;1.58;;;;;;;7.02;100.00;99798.88;5039856;28;20086;-76
2024/02/21 02:01:35;;;;;;;4.82;1.65;;;;;;;7.01;100.00;99778.47;5039552;28;20036;-76
2024/02/21 02:04:02;;;;;;;3.20;1.90;;;;;;;7.04;100.00;99754.09;5039662;28;20037;-76
2024/02/21 02:06:28;;;;;;;1.55;1.25;;;;;;;7.10;100.00;99733.84;5056279;28;20032;-76
2024/02/21 02:08:54;;;;;;;2.55;1.30;;;;;;;7.14;100.00;99727.09;5056058;28;20083;-76
2024/02/21 02:11:20;;;;;;;5.55;1.60;;;;;;;7.16;100.00;99703.72;5056128;28;20055;-76
2024/02/21 02:13:45;;;;;;;2.15;1.50;;;;;;;7.20;100.00;99688.97;5039209;28;20067;-76
2024/02/21 02:16:11;;;;;;;3.05;1.50;;;;;;;7.27;100.00;99684.56;5056080;28;20092;-77
2024/02/21 02:18:37;;;;;;;2.80;1.33;;;;;;;7.32;100.00;99674.16;5039437;28;20033;-76
2024/02/21 02:21:05;;;;;;;1.33;0.80;;;;;;;7.36;100.00;99650.56;5039433;28;20036;-76
2024/02/21 02:23:31;;;;;;;2.00;1.30;;;;;;;7.42;100.00;99636.47;5072222;28;20467;-76
2024/02/21 02:25:58;;;;;;;1.60;1.10;;;;;;;7.49;100.00;99634.72;5039150;28;20488;-76
2024/02/21 02:28:23;;;;;;;1.98;1.40;;;;;;;7.51;100.00;99616.63;5022963;28;20040;-76
2024/02/21 02:30:49;;;;;;;3.58;1.33;;;;;;;7.55;100.00;99604.56;5055441;28;20387;-76
2024/02/21 02:33:17;;;;;;;2.83;1.15;;;;;;;7.58;100.00;99595.34;5072208;28;20035;-76
2024/02/21 02:35:42;;;;;;;2.00;1.05;;;;;;;7.67;100.00;99596.88;5039576;28;20123;-76
2024/02/21 02:38:09;;;;;;;3.35;1.35;;;;;;;7.65;100.00;99577.53;5055797;28;20123;-76
2024/02/21 02:40:35;;;;;;;1.75;1.10;;;;;;;7.71;100.00;99564.22;5072406;28;20021;-76
2024/02/21 02:43:01;;;;;;;0.98;0.82;;;;;;;7.70;100.00;99540.34;5056335;28;20032;-76
2024/02/21 02:45:27;;;;;;;0.70;0.65;;;;;;;7.77;100.00;99533.22;5039764;28;20032;-76
2024/02/21 02:47:59;;;;;;;0.60;0.60;;;;;;;7.80;100.00;99519.44;5039151;28;20059;-76
2024/02/21 02:50:26;;;;;;;1.00;0.77;;;;;;;7.82;100.00;99498.69;5056405;28;20130;-75
2024/02/21 02:52:53;;;;;;;1.27;1.02;;;;;;;7.84;100.00;99487.81;5039346;28;20036;-75
2024/02/21 02:55:19;;;;;;;0.93;0.73;;;;;;;7.84;100.00;99467.22;5042880;28;20194;-76
2024/02/21 02:57:45;;;;;;;0.80;0.77;;;;;;;7.85;100.00;99446.63;5043092;28;20470;-75
2024/02/21 03:00:12;;;;;;;0.75;0.75;;;;;;;7.89;100.00;99439.91;5059414;28;20386;-76
2024/02/21 03:02:39;;;;;;;0.70;0.70;;;;;;;7.91;100.00;99414.59;5042622;28;20082;-76
2024/02/21 03:05:13;;;;;;;1.80;0.70;;;;;;;7.96;100.00;99418.53;5059434;28;20044;-76
2024/02/21 03:07:39;;;;;;;1.10;0.80;;;;;;;8.04;100.00;99413.88;5076338;28;20111;-76
2024/02/21 03:10:04;;;;;;;0.88;0.70;;;;;;;8.11;100.00;99400.56;5075674;28;20120;-76
2024/02/21 03:12:30;;;;;;;1.08;0.70;;;;;;;8.14;100.00;99389.47;5059242;28;20028;-76
2024/02/21 03:14:56;;;;;;;0.77;0.77;;;;;;;8.20;100.00;99377.97;5042823;28;20066;-76
2024/02/21 03:17:21;;;;;;;0.50;0.50;;;;;;;8.25;100.00;99362.13;5042767;28;20078;-76
2024/02/21 03:19:48;;;;;;;0.68;0.65;;;;;;;8.29;100.00;99351.88;5042683;28;20044;-76
2024/02/21 03:22:15;;;;;;;1.33;0.90;;;;;;;8.34;100.00;99330.72;5059332;28;20039;-75
2024/02/21 03:24:42;;;;;;;1.17;0.82;;;;;;;8.42;100.00;99313.69;5042711;28;20074;-76
2024/02/21 03:27:08;;;;;;;0.65;0.65;;;;;;;8.42;100.00;99303.78;5042612;28;20107;-76
2024/02/21 03:29:33;;;;;;;0.93;0.80;;;;;;;8.52;100.00;99295.38;5059125;28;20478;-76
2024/02/21 03:31:59;;;;;;;0.65;0.65;;;;;;;8.59;100.00;99282.84;5042602;28;20040;-76
2024/02/21 03:34:25;;;;;;;2.05;0.93;;;;;;;8.65;100.00;99271.31;5042739;28;20103;-76
2024/02/21 03:36:50;;;;;;;1.20;0.95;;;;;;;8.69;100.00;99258.38;5043241;28;20470;-76
2024/02/21 03:39:16;;;;;;;0.70;0.70;;;;;;;8.78;100.00;99251.78;5042312;28;20471;-76
2024/02/21 03:41:42;;;;;;;0.98;0.88;;;;;;;8.86;100.00;99232.03;5058908;28;20046;-76
2024/02/21 03:44:07;;;;;;;0.60;0.60;;;;;;;8.90;100.00;99215.34;5058432;28;20471;-76
2024/02/21 03:46:33;;;;;;;0.68;0.68;;;;;;;8.96;100.00;99211.03;5043018;28;20037;-76
2024/02/21 03:49:00;;;;;;;0.90;0.70;;;;;;;9.00;100.00;99199.72;5042172;28;20375;-76
2024/02/21 03:51:26;;;;;;;0.60;0.60;;;;;;;9.03;100.00;99188.56;5075190;28;20089;-76
2024/02/21 03:53:51;;;;;;;1.17;1.00;;;;;;;9.09;100.00;99175.38;5042115;28;20119;-76
2024/02/21 03:56:17;;;;;;;0.68;0.60;;;;;;;9.15;100.00;99175.38;5042029;28;20379;-75
2024/02/21 03:58:43;;;;;;;1.10;0.73;;;;;;;9.23;100.00;99160.94;5058597;28;20059;-76
2024/02/21 04:01:09;;;;;;;0.70;0.70;;;;;;;9.32;100.00;99153.53;5075275;28;20032;-76
2024/02/21 04:03:34;;;;;;;0.47;0.47;;;;;;;9.42;100.00;99149.38;5041880;28;20037;-76
2024/02/21 04:06:00;;;;;;;0.70;0.70;;;;;;;9.48;100.00;99126.25;5040810;28;20047;-76
2024/02/21 04:08:25;;;;;;;0.50;0.50;;;;;;;9.47;100.00;99105.81;5041886;28;20043;-76
2024/02/21 04:10:51;;;;;;;0.50;0.50;;;;;;;9.51;100.00;99092.81;5041802;28;20058;-76
2024/02/21 04:13:17;;;;;;;0.40;0.40;;;;;;;9.56;100.00;99058.16;5074539;28;20371;-76
2024/02/21 04:15:42;;;;;;;0.50;0.50;;;;;;;9.61;100.00;99051.09;5041733;28;20050;-76
2024/02/21 04:18:08;;;;;;;0.43;0.43;;;;;;;9.67;100.00;99055.63;5041624;28;20044;-76
2024/02/21 04:20:35;;;;;;;0.47;0.47;;;;;;;9.72;100.00;99051.50;5058358;28;20042;-76
2024/02/21 04:23:01;;;;;;;0.40;0.40;;;;;;;9.77;100.00;99047.13;5041420;28;20467;-76
2024/02/21 04:25:26;;;;;;;1.10;0.50;;;;;;;9.84;100.00;99033.66;5040789;28;20049;-76
2024/02/21 04:27:52;;;;;;;0.50;0.50;;;;;;;9.87;100.00;99027.88;5058193;28;20036;-76
2024/02/21 04:30:18;;;;;;;0.57;0.57;;;;;;;9.89;100.00;99009.69;5041381;28;20036;-76
2024/02/21 04:32:43;;;;;;;0.45;0.45;;;;;;;9.91;100.00;99003.06;5041387;28;20070;-76
2024/02/21 04:35:09;;;;;;;0.32;0.32;;;;;;;9.94;100.00;98999.13;5057898;28;20032;-76
2024/02/21 04:37:35;;;;;;;0.43;0.43;;;;;;;10.01;100.00;98983.81;5074635;28;20033;-76
2024/02/21 04:40:00;;;;;;;0.45;0.45;;;;;;;10.06;100.00;98984.00;5058079;28;20463;-76
2024/02/21 04:42:26;;;;;;;0.40;0.40;;;;;;;10.07;100.00;98980.25;5057484;28;20448;-76
2024/02/21 04:44:52;;;;;;;0.40;0.40;;;;;;;10.10;100.00;98970.94;5041090;28;20070;-76
2024/02/21 04:47:18;;;;;;;0.40;0.40;;;;;;;10.12;100.00;98955.44;5057187;28;20029;-76
2024/02/21 04:49:44;;;;;;;0.40;0.40;;;;;;;10.16;100.00;98950.47;5040780;28;20082;-76
2024/02/21 04:52:09;;;;;;;0.70;0.70;;;;;;;10.13;100.00;98941.81;5057523;28;20127;-76
2024/02/21 04:54:35;;;;;;;0.40;0.40;;;;;;;10.18;100.00;98934.97;5040931;28;20118;-76
2024/02/21 04:57:01;;;;;;;0.50;0.50;;;;;;;10.23;100.00;98919.00;5057426;28;20039;-76
2024/02/21 04:59:26;;;;;;;0.50;0.50;;;;;;;10.19;100.00;98902.53;5040650;28;20045;-76
2024/02/21 05:01:52;;;;;;;0.40;0.40;;;;;;;10.25;100.00;98906.19;5073502;28;20020;-76
2024/02/21 05:04:18;;;;;;;0.40;0.40;;;;;;;10.23;100.00;98892.97;5073502;28;20032;-76
2024/02/21 05:06:44;;;;;;;0.45;0.45;;;;;;;10.22;100.00;98880.59;5073491;28;20036;-76
2024/02/21 05:09:09;;;;;;;0.45;0.45;;;;;;;10.21;100.00;98862.81;5074905;28;20036;-76
2024/02/21 05:11:36;;;;;;;0.50;0.50;;;;;;;10.25;100.00;98849.78;5056719;28;20111;-76
2024/02/21 05:14:03;;;;;;;0.63;0.40;;;;;;;10.27;100.00;98861.97;5024190;28;20040;-76
2024/02/21 05:16:30;;;;;;;0.60;0.45;;;;;;;10.28;100.00;98841.31;5057355;28;20036;-76
2024/02/21 05:18:57;;;;;;;0.40;0.40;;;;;;;10.25;100.00;98828.28;5056844;28;20024;-76
2024/02/21 05:21:25;;;;;;;0.43;0.43;;;;;;;10.27;100.00;98816.31;5040323;28;20496;-76
2024/02/21 05:23:51;;;;;;;0.40;0.40;;;;;;;10.31;100.00;98808.63;5056864;28;20071;-76
2024/02/21 05:26:22;;;;;;;0.50;0.50;;;;;;;10.23;100.00;98796.28;5056953;28;20420;-76
2024/02/21 05:28:48;;;;;;;0.40;0.40;;;;;;;10.31;100.00;98801.38;5039954;28;20040;-76
2024/02/21 05:31:14;;;;;;;0.40;0.40;;;;;;;10.29;100.00;98799.97;5039871;28;20467;-76
2024/02/21 05:33:39;;;;;;;0.40;0.40;;;;;;;10.25;100.00;98780.75;5040271;28;20104;-76
2024/02/21 05:36:06;;;;;;;0.43;0.43;;;;;;;10.28;100.00;98771.47;5040146;28;20461;-76
2024/02/21 05:38:32;;;;;;;0.40;0.40;;;;;;;10.26;100.00;98757.41;5072868;28;20032;-76
2024/02/21 05:40:58;;;;;;;0.40;0.40;;;;;;;10.25;100.00;98755.78;5056616;28;20099;-76
2024/02/21 05:43:23;;;;;;;0.50;0.50;;;;;;;10.28;100.00;98750.78;5040394;28;20043;-76
2024/02/21 05:45:49;;;;;;;0.50;0.50;;;;;;;10.29;100.00;98743.56;5040008;28;20467;-76
2024/02/21 05:48:14;;;;;;;0.40;0.40;;;;;;;10.27;100.00;98737.56;5056439;28;20036;-76
2024/02/21 05:50:40;;;;;;;0.40;0.40;;;;;;;10.29;100.00;98751.63;5039892;28;20074;-76
2024/02/21 05:53:06;;;;;;;0.52;0.40;;;;;;;10.31;100.00;98722.66;5072570;28;20028;-76
2024/02/21 05:55:31;;;;;;;0.40;0.40;;;;;;;10.31;100.00;98723.47;5039810;28;20356;-76
2024/02/21 05:57:57;;;;;;;0.40;0.40;;;;;;;10.32;100.00;98719.78;5056382;28;20044;-76
2024/02/21 06:00:23;;;;;;;0.40;0.40;;;;;;;10.32;100.00;98714.41;5055895;28;20578;-76
2024/02/21 06:02:49;;;;;;;0.38;0.38;;;;;;;10.33;100.00;98707.16;5039385;28;20028;-76
2024/02/21 06:05:15;;;;;;;0.40;0.40;;;;;;;10.33;100.00;98712.53;5072746;28;20493;-76
2024/02/21 06:07:40;;;;;;;0.45;0.45;;;;;;;10.33;100.00;98701.78;5039611;28;20041;-76
2024/02/21 06:10:07;;;;;;;0.50;0.50;;;;;;;10.29;100.00;98682.63;5056094;28;20028;-76
2024/02/21 06:12:33;;;;;;;0.40;0.40;;;;;;;10.32;100.00;98692.91;5039526;28;20170;-76
2024/02/21 06:14:58;;;;;;;0.50;0.50;;;;;;;10.31;100.00;98680.50;5072322;28;20489;-76
2024/02/21 06:17:24;;;;;;;0.40;0.40;;;;;;;10.29;100.00;98665.66;5072635;28;20086;-76
2024/02/21 06:19:50;;;;;;;0.35;0.35;;;;;;;10.32;100.00;98663.38;5055723;28;20359;-76
2024/02/21 06:22:15;;;;;;;0.40;0.40;;;;;;;10.31;100.00;98672.44;5056370;28;20478;-76
2024/02/21 06:24:41;;;;;;;0.40;0.40;;;;;;;10.34;100.00;98674.69;5055790;28;20419;-76
2024/02/21 06:27:06;;;;;;;0.40;0.40;;;;;;;10.35;100.00;98670.16;5072199;28;20028;-76
2024/02/21 06:29:33;;;;;;;0.40;0.40;;;;;;;10.38;100.00;98674.25;5038726;28;20467;-76
2024/02/21 06:31:58;;;;;;;0.30;0.30;;;;;;;10.38;100.00;98664.31;5039335;28;20106;-76
2024/02/21 06:34:24;;;;;;;0.40;0.40;;;;;;;10.40;100.00;98645.28;5055846;28;20463;-76
2024/02/21 06:36:53;;;;;;;0.40;0.40;;;;;;;10.37;100.00;98633.09;5055448;28;20387;-76
2024/02/21 06:39:18;;;;;;;0.40;0.40;;;;;;;10.38;100.00;98639.34;5038764;28;20044;-76
2024/02/21 06:41:44;;;;;;;0.30;0.30;;;;;;;10.42;100.00;98645.88;5055531;28;20398;-76
2024/02/21 06:44:10;;;;;;;0.40;0.40;;;;;;;10.41;100.00;98652.31;5039158;28;20486;-76
2024/02/21 06:46:36;;;;;;;0.40;0.40;;;;;;;10.42;100.00;98657.44;5072272;28;20074;-76
2024/02/21 06:49:03;;;;;;;0.55;0.40;;;;;;;10.43;100.00;98655.59;5039474;28;20036;-76
2024/02/21 06:51:29;;;;;;;0.30;0.30;;;;;;;10.44;100.00;98666.09;5055873;28;20124;-76
2024/02/21 06:53:55;;;;;;;0.30;0.30;;;;;;;10.45;100.00;98648.94;5055689;28;20079;-76
2024/02/21 06:56:26;;;;;;;0.40;0.40;;;;;;;10.43;100.00;98648.34;5039014;28;20034;-76
2024/02/21 06:58:53;;;;;;;0.40;0.40;;;;;;;10.47;100.00;98646.00;5056089;28;20048;-76
2024/02/21 07:01:18;;;;;;;0.40;0.40;;;;;;;10.53;100.00;98634.34;5055393;28;20072;-76
2024/02/21 07:03:46;;;;;;;0.40;0.40;;;;;;;10.56;100.00;98641.97;5055937;28;20098;-76
2024/02/21 07:06:12;;;;;;;0.30;0.30;;;;;;;10.55;100.00;98633.06;5055857;28;20029;-77
2024/02/21 07:08:38;;;;;;;0.43;0.43;;;;;;;10.62;100.00;98643.75;5055573;28;20067;-76
2024/02/21 07:11:06;;;;;;;0.50;0.50;;;;;;;10.64;100.00;98654.25;5056076;28;20028;-76
2024/02/21 07:13:32;;;;;;;0.40;0.40;;;;;;;10.65;100.00;98661.28;5071993;28;20032;-76
2024/02/21 07:15:58;;;;;;;0.40;0.40;;;;;;;10.66;100.00;98661.03;5039481;28;20036;-76
2024/02/21 07:18:25;;;;;;;0.40;0.40;;;;;;;10.69;100.00;98676.75;5071704;28;20540;-76
2024/02/21 07:20:56;;;;;;;0.40;0.40;;;;;;;10.72;100.00;98657.47;5038646;28;20071;-76
2024/02/21 07:23:22;;;;;;;0.35;0.35;;;;;;;10.75;100.00;98656.19;5023095;28;20060;-76
2024/02/21 07:25:47;;;;;;;0.40;0.40;;;;;;;10.79;100.00;98646.59;5055614;28;20064;-76
2024/02/21 07:28:14;;;;;;;0.40;0.40;;;;;;;10.82;100.00;98659.59;5055361;28;20423;-77
2024/02/21 07:30:39;;;;;;;1.38;0.50;;;;;;;10.87;100.00;98656.22;5071994;28;20032;-76
2024/02/21 07:33:07;;;;;;;0.40;0.40;;;;;;;10.91;100.00;98642.09;5038737;28;20471;-76
2024/02/21 07:35:33;;;;;;;0.40;0.40;;;;;;;10.96;100.00;98655.66;5055450;28;20039;-76
2024/02/21 07:37:58;;;;;;;0.47;0.47;;;;;;;10.99;100.00;98663.28;5038944;28;20032;-76
2024/02/21 07:40:24;;;;;;;0.40;0.40;;;;;;;10.98;100.00;98648.19;5038571;28;20029;-76
2024/02/21 07:42:50;;;;;;;0.55;0.55;;;;;;;11.00;100.00;98661.41;5058635;28;20110;-76
2024/02/21 07:45:15;;;;;;;0.60;0.60;;;;;;;11.03;100.00;98681.63;5042483;28;20375;-76
2024/02/21 07:47:41;;;;;;;1.10;0.40;;;;;;;11.02;100.00;98667.38;5075462;28;20032;-76
2024/02/21 07:50:07;;;;;;;0.45;0.45;;;;;;;11.04;100.00;98673.34;5058804;28;20039;-76
2024/02/21 07:52:33;;;;;;;1.95;0.77;;;;;;;11.06;100.00;98689.22;5058794;28;20074;-76
2024/02/21 07:54:58;;;;;;;0.50;0.50;;;;;;;11.04;100.00;98686.78;5042130;28;20025;-76
2024/02/21 07:57:24;;;;;;;0.95;0.50;;;;;;;11.02;100.00;98682.69;5058339;28;20371;-76
2024/02/21 07:59:50;;;;;;;0.50;0.50;;;;;;;11.04;100.00;98688.66;5041929;28;20029;-76
2024/02/21 08:02:16;;;;;;;0.50;0.50;;;;;;;11.02;100.00;98685.38;5041695;28;20040;-76
2024/02/21 08:04:41;;;;;;;0.45;0.45;;;;;;;11.00;100.00;98694.47;5074532;28;20036;-77
2024/02/21 08:07:07;;;;;;;0.55;0.47;;;;;;;11.00;100.00;98686.41;5074584;28;20028;-76
2024/02/21 08:09:34;;;;;;;1.85;0.50;;;;;;;10.98;100.00;98679.63;5042129;28;20031;-76
2024/02/21 08:12:00;;;;;;;0.47;0.47;;;;;;;10.98;100.00;98687.69;5075044;28;20460;-76
2024/02/21 08:14:26;;;;;;;2.55;0.68;;;;;;;10.98;100.00;98680.47;5076008;28;20036;-76
2024/02/21 08:16:55;;;;;;;0.40;0.40;;;;;;;10.99;100.00;98692.03;5041643;28;20036;-76
2024/02/21 08:19:21;;;;;;;3.33;0.73;;;;;;;10.98;100.00;98691.22;5058193;28;20039;-76
2024/02/21 08:21:49;;;;;;;0.40;0.40;;;;;;;10.98;100.00;98710.03;5041554;28;20115;-76
2024/02/21 08:24:15;;;;;;;0.43;0.40;;;;;;;10.98;100.00;98712.72;5058684;28;20033;-76
2024/02/21 08:26:46;;;;;;;0.40;0.40;;;;;;;10.96;100.00;98712.13;5075316;28;20482;-76
2024/02/21 08:29:12;;;;;;;0.40;0.40;;;;;;;10.94;100.00;98743.81;5026141;28;20032;-76
2024/02/21 08:31:38;;;;;;;0.50;0.50;;;;;;;10.90;100.00;98748.00;5057876;28;20035;-76
2024/02/21 08:34:03;;;;;;;0.40;0.40;;;;;;;10.90;100.00;98755.22;5057906;28;20383;-76
2024/02/21 08:36:34;;;;;;;4.15;0.57;;;;;;;10.88;100.00;98768.91;5040978;28;20123;-76
2024/02/21 08:39:00;;;;;;;0.50;0.50;;;;;;;10.86;100.00;98779.06;5041217;28;20032;-76
2024/02/21 08:41:26;;;;;;;0.50;0.50;;;;;;;10.84;100.00;98762.34;5057713;28;20045;-77
2024/02/21 08:43:53;;;;;;;0.40;0.40;;;;;;;10.87;100.00;98790.66;5041211;28;20481;-76
2024/02/21 08:46:24;;;;;;;1.67;0.40;;;;;;;10.86;100.00;98797.06;5057616;28;20077;-76
2024/02/21 08:48:53;;;;;;;1.35;1.05;;;;;;;10.87;100.00;98790.66;5057607;28;20036;-76
2024/02/21 08:51:19;;;;;;;0.50;0.50;;;;;;;10.79;100.00;98806.03;5040686;28;20032;-76
2024/02/21 08:53:45;;;;;;;0.50;0.47;;;;;;;10.75;100.00;98815.59;5073911;28;20031;-76
2024/02/21 08:56:11;;;;;;;0.60;0.60;;;;;;;10.82;100.00;98810.13;5040830;28;20506;-76
2024/02/21 08:58:37;;;;;;;1.02;0.65;;;;;;;10.77;100.00;98823.44;5074067;28;20048;-76
2024/02/21 09:01:09;;;;;;;1.45;0.80;;;;;;;10.75;100.00;98826.34;5041222;28;20062;-76
2024/02/21 09:03:53;;;;;;;1.77;0.63;;;;;;;10.80;100.00;98833.75;5072392;28;20036;-76
2024/02/21 09:06:19;;;;;;;5.15;2.25;;;;;;;10.79;100.00;98832.09;5073694;28;20032;-76
2024/02/21 09:08:45;;;;;;;1.08;0.70;;;;;;;10.75;100.00;98842.47;5056637;28;20082;-76
2024/02/21 09:11:11;;;;;;;0.63;0.47;;;;;;;10.76;100.00;98854.88;5056915;28;20036;-76
2024/02/21 09:13:40;;;;;;;1.60;0.70;;;;;;;10.78;100.00;98857.34;5040170;28;20050;-76
2024/02/21 09:16:05;;;;;;;3.05;0.90;;;;;;;10.82;100.00;98852.34;5057405;28;20075;-76
2024/02/21 09:18:31;;;;;;;1.27;0.73;;;;;;;10.88;100.00;98856.84;5057009;28;20067;-76
2024/02/21 09:20:57;;;;;;;2.53;0.80;;;;;;;10.88;100.00;98860.34;5056689;28;20071;-76
2024/02/21 09:23:26;;;;;;;0.50;0.50;;;;;;;10.90;100.00;98870.84;5056725;28;20027;-76
2024/02/21 09:25:55;;;;;;;0.50;0.50;;;;;;;10.91;100.00;98878.72;5057183;28;20033;-76
2024/02/21 09:28:21;;;;;;;0.57;0.57;;;;;;;11.00;100.00;98871.97;5057129;28;20024;-76
2024/02/21 09:30:46;;;;;;;0.43;0.43;;;;;;;10.98;100.00;98897.44;5074541;28;20486;-76
2024/02/21 09:33:12;;;;;;;0.50;0.50;;;;;;;11.07;100.00;98885.34;5056769;28;20043;-75
2024/02/21 09:35:38;;;;;;;0.60;0.60;;;;;;;11.10;100.00;98892.16;5040873;28;20512;-76
2024/02/21 09:38:04;;;;;;;0.65;0.63;;;;;;;11.06;100.00;98904.38;5040043;28;20064;-77
2024/02/21 09:40:30;;;;;;;0.75;0.60;;;;;;;11.09;100.00;98917.41;5040009;28;20040;-76
2024/02/21 09:43:04;;;;;;;1.85;0.60;;;;;;;11.00;100.00;98912.31;5072239;28;20417;-75
2024/02/21 09:45:29;;;;;;;0.75;0.47;;;;;;;10.99;100.00;98917.94;5072918;28;20024;-75
2024/02/21 09:47:58;;;;;;;0.60;0.60;;;;;;;10.95;100.00;98922.91;5056541;28;20036;-75
2024/02/21 09:50:24;;;;;;;2.10;0.85;;;;;;;10.94;100.00;98925.84;5072859;28;20032;-75
2024/02/21 09:52:51;;;;;;;1.55;0.80;;;;;;;10.88;100.00;98941.00;5056288;28;20148;-75
2024/02/21 09:55:17;;;;;;;1.33;0.75;;;;;;;10.83;100.00;98938.16;5039458;28;20040;-75
2024/02/21 09:57:44;;;;;;;1.50;0.70;;;;;;;10.87;100.00;98938.53;5056143;28;20039;-75
2024/02/21 10:00:21;;;;;;;1.25;0.98;;;;;;;10.77;100.00;98945.25;5041189;28;20115;-75
2024/02/21 10:02:49;;;;;;;0.90;0.80;;;;;;;10.77;100.00;98952.50;5056775;28;20028;-75
2024/02/21 10:05:15;;;;;;;5.88;1.00;;;;;;;10.66;100.00;98963.94;5055458;28;20041;-75
2024/02/21 10:07:41;;;;;;;1.63;0.77;;;;;;;10.59;100.00;98958.63;5039520;28;20198;-75
2024/02/21 10:10:07;;;;;;;4.78;1.45;;;;;;;10.57;100.00;98974.16;5039527;28;20032;-75
2024/02/21 10:12:33;;;;;;;2.47;0.60;;;;;;;10.70;100.00;98976.72;5039522;28;20086;-75
2024/02/21 10:15:06;;;;;;;1.27;0.60;;;;;;;10.69;100.00;98985.84;5039315;28;20111;-75
2024/02/21 10:17:32;;;;;;;1.75;0.68;;;;;;;10.64;100.00;98982.16;5039468;28;20543;-75
2024/02/21 10:20:11;;;;;;;0.40;0.40;;;;;;;10.55;100.00;98998.56;5055190;28;20504;-76
2024/02/21 10:22:39;;;;;;;1.17;0.70;;;;;;;10.49;100.00;99004.81;5072242;28;20046;-75
2024/02/21 10:25:11;;;;;;;2.28;2.15;;;;;;;10.78;100.00;99003.34;5055871;28;20052;-75
2024/02/21 10:27:41;;;;;;;5.78;0.80;;;;;;;10.72;100.00;99016.84;5072674;28;20111;-75
2024/02/21 10:30:14;;;;;;;0.60;0.60;;;;;;;10.56;100.00;98999.41;5072605;28;20041;-76
2024/02/21 10:32:53;;;;;;;1.40;1.38;;;;;;;10.60;100.00;99010.53;5071931;28;20526;-75
2024/02/21 10:35:30;;;;;;;1.40;0.80;;;;;;;10.57;100.00;99007.22;5055492;28;20065;-75
2024/02/21 10:37:57;;;;;;;1.23;0.90;;;;;;;10.59;100.00;99008.88;5055661;28;20033;-75
2024/02/21 10:40:30;;;;;;;2.13;1.10;;;;;;;10.64;100.00;99011.72;5038839;28;20127;-75
2024/02/21 10:42:58;;;;;;;0.50;0.50;;;;;;;10.50;100.00;99002.94;5071609;28;20356;-75
2024/02/21 10:45:32;;;;;;;0.65;0.60;;;;;;;10.82;100.00;99010.94;5071738;28;20028;-75
2024/02/21 10:48:25;;;;;;;2.08;0.60;;;;;;;11.39;100.00;99017.84;5055465;28;20750;-75
2024/02/21 10:51:03;;;;;;;1.00;0.70;;;;;;;11.90;100.00;99015.81;5071844;28;20383;-75
2024/02/21 10:54:03;;;;;;;0.73;0.73;;;;;;;13.04;100.00;99012.22;5039105;28;20131;-75
2024/02/21 10:56:36;;;;;;;1.02;1.02;;;;;;;12.56;100.00;99019.44;5055568;28;20119;-76
2024/02/21 10:59:04;;;;;;;2.33;1.40;;;;;;;12.24;100.00;99024.28;5039729;28;20051;-75
2024/02/21 11:01:31;;;;;;;0.82;0.82;;;;;;;12.06;100.00;99025.97;5038600;28;20394;-75
2024/02/21 11:04:01;;;;;;;2.13;0.68;;;;;;;12.09;100.00;99008.53;5056274;28;20078;-75
2024/02/21 11:06:28;;;;;;;4.13;1.20;;;;;;;12.07;100.00;99027.63;5039206;28;20048;-75
2024/02/21 11:09:04;;;;;;;1.65;0.70;;;;;;;12.12;100.00;99013.47;5038935;28;20037;-75
2024/02/21 11:11:39;;;;;;;2.30;0.80;;;;;;;12.25;100.00;99024.06;5072922;28;20029;-75
2024/02/21 11:14:06;;;;;;;5.45;1.13;;;;;;;12.12;100.00;99024.25;5073760;28;20028;-75
2024/02/21 11:16:37;;;;;;;6.88;1.00;;;;;;;12.14;100.00;99024.81;5075568;28;20028;-74
2024/02/21 11:19:18;;;;;;;5.70;0.90;;;;;;;12.00;100.00;99026.06;5075908;28;20040;-75
2024/02/21 11:21:44;;;;;;;1.98;0.85;;;;;;;12.34;100.00;99026.44;5042830;28;20044;-75
2024/02/21 11:24:09;;;;;;;0.65;0.65;;;;;;;12.41;100.00;99025.28;5042906;28;20079;-76
2024/02/21 11:26:37;;;;;;;1.40;0.77;;;;;;;12.38;100.00;99028.41;5042471;28;20037;-75